Time;durP1;ratioP1;P1;durP2;ratioP2;P2;SDS_P1;SDS_P2;PMS_P1;PMS_P2;Temp;Humidity;BMP_temperature;BMP_pressure;BME280_temperature;BME280_humidity;BME280_pressure;Samples;Min_cycle;Max_cycle;Signal;HPM_P1;HPM_P2
2023/04/14 00:00:40;;;;;;;;;;;6.80;60.70;;;1.79;100.00;94791.53;4972492;28;19949;-48
2023/04/14 00:03:06;;;;;;;;;;;6.70;61.40;;;1.78;100.00;94786.47;4973158;28;19905;-47
2023/04/14 00:05:33;;;;;;;;;;;6.70;60.60;;;1.78;100.00;94799.63;4972377;28;19906;-46
2023/04/14 00:08:00;;;;;;;;;;;6.80;60.60;;;1.73;100.00;94800.31;4972894;28;19905;-46
2023/04/14 00:10:27;;;;;;;;;;;6.70;60.60;;;1.71;100.00;94794.47;4973304;28;19909;-45
2023/04/14 00:12:55;;;;;;;;;;;6.70;60.60;;;1.70;100.00;94794.72;4971907;28;19905;-46
2023/04/14 00:15:21;;;;;;;;;;;6.70;60.60;;;1.66;100.00;94796.19;4972243;28;19906;-45
2023/04/14 00:17:47;;;;;;;;;;;6.60;60.60;;;1.64;100.00;94795.63;4971786;28;19910;-46
2023/04/14 00:20:13;;;;;;;;;;;6.60;60.60;;;1.61;100.00;94796.88;4973269;28;19909;-48
2023/04/14 00:22:38;;;;;;;;;;;6.60;60.70;;;1.60;100.00;94803.97;4972852;28;20276;-46
2023/04/14 00:25:05;;;;;;;;;;;6.60;60.80;;;1.58;100.00;94806.00;4972123;28;19912;-46
2023/04/14 00:27:32;;;;;;;;;;;6.50;60.80;;;1.57;100.00;94809.66;4972818;28;20344;-47
2023/04/14 00:29:57;;;;;;;;;;;6.50;60.90;;;1.54;100.00;94806.69;4972040;28;20284;-47
2023/04/14 00:32:23;;;;;;;;;;;6.50;60.90;;;1.51;100.00;94809.78;4972770;28;19910;-46
2023/04/14 00:34:49;;;;;;;;;;;6.40;60.80;;;1.46;100.00;94802.56;4972897;28;19905;-47
2023/04/14 00:37:15;;;;;;;;;;;6.40;60.80;;;1.43;100.00;94813.50;4971417;28;19917;-51
2023/04/14 00:39:41;;;;;;;;;;;6.40;60.80;;;1.38;100.00;94806.31;4973108;28;19912;-47
2023/04/14 00:42:06;;;;;;;;;;;6.30;60.80;;;1.34;100.00;94807.78;4972057;28;19906;-48
2023/04/14 00:44:32;;;;;;;;;;;6.30;60.90;;;1.29;100.00;94801.63;4972629;28;19963;-46
2023/04/14 00:47:00;;;;;;;;;;;6.20;60.90;;;1.26;100.00;94804.72;4987426;28;19936;-55
2023/04/14 00:49:27;;;;;;;;;;;6.20;60.90;;;1.20;100.00;94800.34;4971918;28;19906;-46
2023/04/14 00:51:53;;;;;;;;;;;6.20;61.00;;;1.13;100.00;94805.72;4972761;28;19905;-46
2023/04/14 00:54:19;;;;;;;;;;;6.10;60.90;;;1.06;100.00;94797.91;4971850;28;19913;-47
2023/04/14 00:56:56;;;;;;;;;;;6.10;60.90;;;1.00;100.00;94798.81;4972386;28;19963;-50
2023/04/14 00:59:22;;;;;;;;;;;6.00;60.90;;;0.95;100.00;94811.00;4971773;28;20404;-46
2023/04/14 01:01:48;;;;;;;;;;;6.00;61.00;;;0.89;100.00;94810.06;4971966;28;20280;-47
2023/04/14 01:04:15;;;;;;;;;;;5.90;60.90;;;0.85;100.00;94806.31;4972504;28;19913;-48
2023/04/14 01:06:41;;;;;;;;;;;5.90;61.10;;;0.82;100.00;94804.13;4971473;28;19912;-46
2023/04/14 01:09:08;;;;;;;;;;;5.80;61.10;;;0.78;100.00;94801.13;4972337;28;19906;-47
2023/04/14 01:12:17;;;;;;;;;;;5.80;61.10;;;0.73;100.00;94806.25;4970172;28;20003;-46
2023/04/14 01:15:07;;;;;;;;;;;5.80;61.20;;;0.69;100.00;94812.97;4972626;28;19948;-53
2023/04/14 01:17:53;;;;;;;;;;;5.70;61.30;;;0.71;100.00;94816.16;4971653;28;19954;-47
2023/04/14 01:20:35;;;;;;;;;;;5.70;61.40;;;0.76;100.00;94818.91;4972786;28;19944;-52
2023/04/14 01:23:33;;;;;;;;;;;5.70;61.50;;;0.78;100.00;94819.47;4972427;28;19905;-48
2023/04/14 01:26:30;;;;;;;;;;;5.70;61.50;;;0.77;100.00;94820.50;4952846;28;19920;-46
2023/04/14 01:29:29;;;;;;;;;;;5.70;61.60;;;0.75;100.00;94812.06;4956641;28;20268;-46
2023/04/14 01:32:20;;;;;;;;;;;5.60;61.60;;;0.72;100.00;94822.19;4970330;28;19955;-46
2023/04/14 01:35:12;;;;;;;;;;;5.70;61.60;;;0.69;100.00;94826.88;4976166;28;19906;-48
2023/04/14 01:37:51;;;;;;;;;;;5.70;61.60;;;0.68;100.00;94824.44;4956169;28;19921;-46
2023/04/14 01:40:20;;;;;;;;;;;5.70;62.40;;;0.69;100.00;94816.38;4956545;28;19906;-48
2023/04/14 01:43:01;;;;;;;;;;;5.60;61.60;;;0.72;100.00;94822.97;4969432;28;19989;-46
2023/04/14 01:45:38;;;;;;;;;;;5.60;61.70;;;0.77;100.00;94822.34;4975962;28;20422;-47
2023/04/14 01:48:06;;;;;;;;;;;5.70;61.90;;;0.81;100.00;94813.00;4965360;28;19925;-46
2023/04/14 01:50:35;;;;;;;;;;;5.60;61.90;;;0.86;100.00;94815.75;4956616;28;19909;-46
2023/04/14 01:53:05;;;;;;;;;;;5.70;62.00;;;0.89;100.00;94818.72;4954799;28;20269;-49
2023/04/14 01:55:36;;;;;;;;;;;5.70;62.00;;;0.91;100.00;94816.69;4954521;28;19941;-47
2023/04/14 01:58:04;;;;;;;;;;;5.70;62.00;;;0.91;100.00;94815.91;4955917;28;19996;-45
2023/04/14 02:00:34;;;;;;;;;;;5.80;62.60;;;0.95;100.00;94813.63;4965470;28;19956;-49
2023/04/14 02:03:06;;;;;;;;;;;5.80;62.10;;;0.96;100.00;94816.00;4973989;28;19905;-47
2023/04/14 02:05:37;;;;;;;;;;;5.80;62.10;;;0.97;100.00;94816.81;4974568;28;19905;-47
2023/04/14 02:08:09;;;;;;;;;;;5.90;62.10;;;1.03;100.00;94821.16;4975234;28;19912;-46
2023/04/14 02:10:43;;;;;;;;;;;5.90;62.10;;;1.05;100.00;94824.38;4974388;28;20000;-46
2023/04/14 02:13:12;;;;;;;;;;;5.90;62.10;;;1.06;100.00;94816.25;4972322;28;20149;-47
2023/04/14 02:15:39;;;;;;;;;;;5.90;62.10;;;1.07;100.00;94823.13;4974159;28;20119;-47
2023/04/14 02:18:06;;;;;;;;;;;6.00;62.20;;;1.14;100.00;94823.03;4973700;28;20448;-46
2023/04/14 02:20:36;;;;;;;;;;;6.00;62.20;;;1.17;100.00;94822.59;4974112;28;19905;-46
2023/04/14 02:23:02;;;;;;;;;;;6.00;63.00;;;1.19;100.00;94819.72;4974113;28;20379;-48
2023/04/14 02:25:33;;;;;;;;;;;6.00;62.20;;;1.18;100.00;94818.13;4974738;28;19906;-47
2023/04/14 02:28:28;;;;;;;;;;;6.00;62.20;;;1.18;100.00;94818.13;4973865;28;20428;-47
2023/04/14 02:30:58;;;;;;;;;;;6.00;62.10;;;1.18;100.00;94824.19;4971180;28;20043;-47
2023/04/14 02:33:33;;;;;;;;;;;6.10;62.10;;;1.20;100.00;94829.22;4974795;28;19910;-47
2023/04/14 02:36:14;;;;;;;;;;;6.10;62.20;;;1.18;100.00;94824.19;4972635;28;19912;-54
2023/04/14 02:39:19;;;;;;;;;;;6.10;62.20;;;1.20;100.00;94823.97;4972652;28;19913;-48
2023/04/14 02:41:52;;;;;;;;;;;6.10;62.20;;;1.22;100.00;94830.56;4972922;28;20392;-46
2023/04/14 02:44:24;;;;;;;;;;;6.10;62.30;;;1.24;100.00;94828.53;4988894;28;19905;-51
2023/04/14 02:47:12;;;;;;;;;;;6.10;62.30;;;1.29;100.00;94828.66;4974701;28;20288;-46
2023/04/14 02:49:45;;;;;;;;;;;6.20;62.40;;;1.33;100.00;94826.38;4955098;28;19905;-46
2023/04/14 02:52:16;;;;;;;;;;;6.20;62.40;;;1.36;100.00;94834.63;4969825;28;19976;-47
2023/04/14 02:54:45;;;;;;;;;;;6.20;62.40;;;1.39;100.00;94828.91;4967575;28;19905;-49
2023/04/14 02:57:13;;;;;;;;;;;6.30;62.40;;;1.42;100.00;94826.88;4974329;28;20253;-46
2023/04/14 02:59:42;;;;;;;;;;;6.30;62.60;;;1.43;100.00;94823.22;4973331;28;19913;-46
2023/04/14 03:02:11;;;;;;;;;;;6.30;62.50;;;1.45;100.00;94821.19;4973146;28;20312;-46
2023/04/14 03:04:37;;;;;;;;;;;6.30;62.40;;;1.45;100.00;94824.59;4974148;28;20388;-46
2023/04/14 03:07:10;;;;;;;;;;;6.40;62.50;;;1.47;100.00;94829.59;4972213;28;20004;-46
2023/04/14 03:09:36;;;;;;;;;;;6.40;63.30;;;1.48;100.00;94823.34;4974308;28;20044;-51
2023/04/14 03:12:05;;;;;;;;;;;6.40;62.60;;;1.52;100.00;94824.50;4956167;28;19971;-45
2023/04/14 03:14:31;;;;;;;;;;;6.40;62.60;;;1.53;100.00;94823.44;4974012;28;19909;-47
2023/04/14 03:16:58;;;;;;;;;;;6.40;62.50;;;1.55;100.00;94818.78;4972893;28;19918;-46
2023/04/14 03:19:27;;;;;;;;;;;6.50;62.60;;;1.56;100.00;94821.16;4972120;28;19905;-48
2023/04/14 03:21:55;;;;;;;;;;;6.50;62.60;;;1.58;100.00;94813.09;4974043;28;19905;-49
2023/04/14 03:24:27;;;;;;;;;;;6.40;62.60;;;1.59;100.00;94812.03;4971727;28;19912;-57
2023/04/14 03:27:01;;;;;;;;;;;6.40;62.60;;;1.59;100.00;94817.28;4954619;28;19940;-46
2023/04/14 03:29:45;;;;;;;;;;;6.40;62.60;;;1.62;100.00;94816.84;4956579;28;19970;-47
2023/04/14 03:32:15;;;;;;;;;;;6.40;62.70;;;1.61;100.00;94816.06;4973924;28;19905;-46
2023/04/14 03:34:45;;;;;;;;;;;6.40;62.70;;;1.60;100.00;94813.66;4974141;28;19905;-45
2023/04/14 03:37:16;;;;;;;;;;;6.40;62.70;;;1.59;100.00;94812.03;4972791;28;19917;-47
2023/04/14 03:39:46;;;;;;;;;;;6.40;62.70;;;1.56;100.00;94815.13;4972725;28;20004;-46
2023/04/14 03:42:12;;;;;;;;;;;6.40;62.70;;;1.50;100.00;94823.91;4971805;28;19906;-46
2023/04/14 03:44:41;;;;;;;;;;;6.30;62.70;;;1.46;100.00;94820.94;4973569;28;19917;-46
2023/04/14 03:47:09;;;;;;;;;;;6.30;62.60;;;1.39;100.00;94823.66;4973139;28;19913;-49
2023/04/14 03:49:38;;;;;;;;;;;6.30;62.70;;;1.32;100.00;94833.47;4973123;28;20249;-46
2023/04/14 03:52:09;;;;;;;;;;;6.20;62.50;;;1.29;100.00;94827.88;4973565;28;20391;-45
2023/04/14 03:54:41;;;;;;;;;;;6.20;62.60;;;1.24;100.00;94833.78;4971094;28;19905;-46
2023/04/14 03:57:12;;;;;;;;;;;6.10;62.50;;;1.18;100.00;94839.13;4973046;28;19939;-46
2023/04/14 03:59:40;;;;;;;;;;;6.10;62.60;;;1.11;100.00;94837.41;4983406;28;19910;-46
2023/04/14 04:02:08;;;;;;;;;;;6.10;62.60;;;1.04;100.00;94835.91;4961329;28;19906;-49
2023/04/14 04:04:35;;;;;;;;;;;6.00;62.60;;;0.97;100.00;94849.06;4951616;28;19906;-46
2023/04/14 04:07:04;;;;;;;;;;;5.90;62.50;;;0.91;100.00;94847.38;4968191;28;20377;-46
2023/04/14 04:09:35;;;;;;;;;;;5.90;62.50;;;0.82;100.00;94849.50;4971778;28;19906;-47
2023/04/14 04:12:03;;;;;;;;;;;5.80;62.50;;;0.71;100.00;94852.84;4954880;28;19909;-49
2023/04/14 04:14:31;;;;;;;;;;;5.70;62.40;;;0.68;100.00;94848.03;4972068;28;20281;-48
2023/04/14 04:17:01;;;;;;;;;;;5.60;62.40;;;0.62;100.00;94862.81;4971628;28;20020;-46
2023/04/14 04:19:32;;;;;;;;;;;5.60;62.40;;;0.48;100.00;94858.78;4971156;28;20284;-46
2023/04/14 04:22:00;;;;;;;;;;;5.50;62.40;;;0.42;100.00;94863.06;4973101;28;20353;-47
2023/04/14 04:24:35;;;;;;;;;;;5.50;62.50;;;0.44;100.00;94861.03;4977662;28;19913;-48
2023/04/14 04:27:01;;;;;;;;;;;5.30;62.50;;;0.40;100.00;94861.66;4971616;28;19906;-46
2023/04/14 04:29:27;;;;;;;;;;;5.30;62.60;;;0.32;100.00;94865.41;4970819;28;19915;-46
2023/04/14 04:31:53;;;;;;;;;;;5.30;62.60;;;0.28;100.00;94858.16;4973036;28;19932;-46
2023/04/14 04:34:19;;;;;;;;;;;5.20;62.60;;;0.22;100.00;94865.09;4972837;28;19992;-46
2023/04/14 04:36:46;;;;;;;;;;;5.10;62.50;;;0.15;100.00;94859.13;4971704;28;19909;-44
2023/04/14 04:39:12;;;;;;;;;;;5.10;62.60;;;0.11;100.00;94864.00;4971410;28;19910;-46
2023/04/14 04:41:38;;;;;;;;;;;5.10;62.70;;;0.09;100.00;94871.25;4971775;28;19913;-46
2023/04/14 04:44:03;;;;;;;;;;;5.00;62.70;;;0.06;100.00;94861.19;4972677;28;19948;-46
2023/04/14 04:46:44;;;;;;;;;;;4.90;62.70;;;0.02;100.00;94860.03;4972545;28;19913;-54
2023/04/14 04:49:10;;;;;;;;;;;4.90;62.70;;;-0.04;100.00;94861.69;4971846;28;19905;-47
2023/04/14 04:51:37;;;;;;;;;;;4.90;62.80;;;-0.10;100.00;94869.63;4972422;28;19915;-47
2023/04/14 04:54:03;;;;;;;;;;;4.80;62.80;;;-0.14;100.00;94868.47;4971706;28;19909;-49
2023/04/14 04:56:28;;;;;;;;;;;4.80;62.80;;;-0.16;100.00;94870.47;4972307;28;19917;-51
2023/04/14 04:58:54;;;;;;;;;;;4.80;62.90;;;-0.19;100.00;94873.53;4972652;28;19905;-47
2023/04/14 05:01:20;;;;;;;;;;;4.80;62.90;;;-0.20;100.00;94875.34;4973375;28;19905;-47
2023/04/14 05:03:46;;;;;;;;;;;4.80;63.70;;;-0.24;100.00;94863.72;4976285;28;19913;-49
2023/04/14 05:06:12;;;;;;;;;;;4.70;62.90;;;-0.24;100.00;94872.34;4975452;28;19914;-46
2023/04/14 05:08:38;;;;;;;;;;;4.70;63.00;;;-0.24;100.00;94872.34;4975927;28;19906;-49
2023/04/14 05:11:05;;;;;;;;;;;4.70;63.00;;;-0.19;100.00;94878.75;4976550;28;19916;-48
2023/04/14 05:13:31;;;;;;;;;;;4.70;63.10;;;-0.19;100.00;94871.69;4974167;28;20004;-48
2023/04/14 05:16:05;;;;;;;;;;;4.70;63.10;;;-0.17;100.00;94880.16;4976638;28;19944;-45
2023/04/14 05:18:32;;;;;;;;;;;4.70;63.20;;;-0.15;100.00;94874.72;4975023;28;19949;-48
2023/04/14 05:21:02;;;;;;;;;;;4.70;63.20;;;-0.18;100.00;94875.94;4976533;28;19910;-46
2023/04/14 05:23:29;;;;;;;;;;;4.80;63.20;;;-0.17;100.00;94882.78;4975128;28;20012;-47
2023/04/14 05:25:56;;;;;;;;;;;4.80;63.20;;;-0.13;100.00;94885.75;4976185;28;20288;-47
2023/04/14 05:28:22;;;;;;;;;;;4.80;63.20;;;-0.08;100.00;94881.47;4975788;28;19905;-46
2023/04/14 05:30:49;;;;;;;;;;;4.90;63.30;;;-0.02;100.00;94883.25;4975245;28;19906;-44
2023/04/14 05:33:15;;;;;;;;;;;4.90;63.30;;;0.00;100.00;94893.53;4975551;28;19912;-44
2023/04/14 05:35:43;;;;;;;;;;;5.00;63.40;;;0.11;100.00;94890.19;4975251;28;19905;-47
2023/04/14 05:38:09;;;;;;;;;;;5.10;63.40;;;0.30;100.00;94890.19;4975501;28;20292;-50
2023/04/14 05:40:36;;;;;;;;;;;5.30;63.50;;;0.50;100.00;94890.78;4970024;28;19941;-51
2023/04/14 05:43:02;;;;;;;;;;;5.40;63.50;;;0.71;100.00;94892.16;4974918;28;19913;-48
2023/04/14 05:45:28;;;;;;;;;;;5.70;63.60;;;0.97;100.00;94892.88;4989129;28;19964;-47
2023/04/14 05:47:53;;;;;;;;;;;5.90;63.70;;;1.22;100.00;94895.38;4971566;28;20369;-50
2023/04/14 05:50:21;;;;;;;;;;;6.20;63.70;;;1.46;100.00;94904.94;4974807;28;19914;-47
2023/04/14 05:52:47;;;;;;;;;;;6.40;63.70;;;1.74;100.00;94906.94;4973306;28;19916;-48
2023/04/14 05:55:13;;;;;;;;;;;6.70;63.60;;;1.92;100.00;94905.25;4973471;28;19964;-46
2023/04/14 05:57:39;;;;;;;;;;;7.00;63.50;;;2.22;100.00;94913.84;5001635;23;19917;-52
2023/04/14 06:00:06;;;;;;;;;;;7.30;63.40;;;2.53;100.00;94914.50;4992177;28;19924;-51
2023/04/14 06:02:32;;;;;;;;;;;7.60;63.30;;;2.81;100.00;94918.25;4992993;28;19909;-57
2023/04/14 06:04:58;;;;;;;;;;;8.00;63.20;;;3.12;100.00;94915.19;4985969;28;20360;-55
2023/04/14 06:07:24;;;;;;;;;;;8.30;63.10;;;3.27;100.00;94919.16;4977191;28;19912;-56
2023/04/14 06:09:50;;;;;;;;;;;8.70;62.90;;;3.62;100.00;94913.75;4971329;28;20004;-57
2023/04/14 06:12:16;;;;;;;;;;;9.00;62.70;;;3.94;100.00;94912.16;4974289;28;20338;-52
2023/04/14 06:14:42;;;;;;;;;;;9.40;62.60;;;4.17;100.00;94919.13;4975269;28;20007;-56
2023/04/14 06:17:08;;;;;;;;;;;9.70;62.60;;;4.34;100.00;94916.47;4974375;28;19917;-57
2023/04/14 06:19:33;;;;;;;;;;;10.10;62.30;;;4.51;100.00;94913.03;4965200;28;19906;-52
2023/04/14 06:21:59;;;;;;;;;;;10.40;61.90;;;4.73;100.00;94910.41;4956080;28;19909;-56
2023/04/14 06:24:25;;;;;;;;;;;10.70;61.60;;;4.92;100.00;94916.19;4965418;28;20249;-57
2023/04/14 06:26:51;;;;;;;;;;;11.10;61.30;;;5.07;100.00;94911.91;4974525;28;20084;-57
2023/04/14 06:29:17;;;;;;;;;;;11.30;60.90;;;5.18;100.00;94915.47;4974056;28;19912;-54
2023/04/14 06:31:43;;;;;;;;;;;11.60;60.60;;;5.24;100.00;94911.84;4974879;28;19909;-57
2023/04/14 06:34:09;;;;;;;;;;;11.80;60.10;;;5.47;99.36;94917.91;4974609;28;19905;-57
2023/04/14 06:36:35;;;;;;;;;;;12.10;60.00;;;5.69;98.41;94910.72;4973639;28;20008;-55
2023/04/14 06:39:01;;;;;;;;;;;12.40;59.70;;;5.87;96.40;94916.72;4974748;28;20008;-54
2023/04/14 06:41:27;;;;;;;;;;;12.60;59.50;;;6.09;93.46;94912.16;4973746;28;20396;-52
2023/04/14 06:43:53;;;;;;;;;;;12.80;59.20;;;6.40;91.07;94905.25;4974184;28;19915;-51
2023/04/14 06:46:18;;;;;;;;;;;13.10;59.20;;;6.60;89.03;94906.44;4974638;28;19979;-56
2023/04/14 06:48:44;;;;;;;;;;;13.30;59.10;;;6.79;86.17;94901.53;4973228;28;19906;-53
2023/04/14 06:51:11;;;;;;;;;;;13.50;59.00;;;7.02;83.35;94898.47;4974572;28;19912;-57
2023/04/14 06:53:39;;;;;;;;;;;13.70;58.90;;;7.18;81.04;94897.47;4973472;28;19910;-57
2023/04/14 06:56:06;;;;;;;;;;;13.90;58.70;;;7.28;80.36;94888.75;4974066;28;19913;-54
2023/04/14 06:58:32;;;;;;;;;;;14.00;58.50;;;7.14;79.35;94885.78;4973926;28;20004;-56
2023/04/14 07:01:00;;;;;;;;;;;14.10;58.10;;;7.29;77.66;94889.56;4973299;28;19952;-55
2023/04/14 07:03:29;;;;;;;;;;;14.10;57.90;;;7.21;77.38;94892.69;4973863;28;20427;-50
2023/04/14 07:06:06;;;;;;;;;;;14.00;57.80;;;6.94;76.50;94889.16;4973434;28;19949;-51
2023/04/14 07:08:33;;;;;;;;;;;13.90;57.80;;;6.96;78.98;94886.25;4972644;28;19909;-48
2023/04/14 07:11:07;;;;;;;;;;;13.70;57.80;;;7.15;79.78;94887.41;4973947;28;19956;-47
2023/04/14 07:13:34;;;;;;;;;;;13.60;58.00;;;7.37;79.83;94881.09;4973669;28;20378;-48
2023/04/14 07:16:01;;;;;;;;;;;13.80;58.20;;;7.43;77.82;94885.38;4974162;28;19912;-48
2023/04/14 07:18:28;;;;;;;;;;;14.00;58.30;;;7.84;78.01;94880.94;4972864;28;19909;-47
2023/04/14 07:20:54;;;;;;;;;;;14.30;58.30;;;8.11;76.90;94880.66;4972816;28;19905;-49
2023/04/14 07:23:21;;;;;;;;;;;14.50;58.40;;;8.33;76.45;94888.34;4972316;28;19948;-47
2023/04/14 07:25:56;;;;;;;;;;;14.80;58.40;;;8.80;75.90;94875.81;4973347;28;19952;-49
2023/04/14 07:28:25;;;;;;;;;;;15.20;58.30;;;8.92;72.67;94878.16;4973155;28;19941;-48
2023/04/14 07:30:52;;;;;;;;;;;15.40;57.80;;;9.02;71.42;94875.47;4972810;28;20423;-50
2023/04/14 07:33:18;;;;;;;;;;;15.50;57.60;;;9.14;71.42;94880.47;4973355;28;19960;-50
2023/04/14 07:35:45;;;;;;;;;;;15.60;57.30;;;9.46;70.33;94870.25;4972747;28;19905;-47
2023/04/14 07:38:11;;;;;;;;;;;15.80;57.00;;;9.64;68.58;94870.66;4973107;28;20016;-49
2023/04/14 07:40:37;;;;;;;;;;;16.10;57.00;;;9.86;68.90;94870.25;4973713;28;20013;-50
2023/04/14 07:43:03;;;;;;;;;;;16.40;56.70;;;10.20;66.72;94875.59;4972269;28;19905;-47
2023/04/14 07:45:30;;;;;;;;;;;16.70;56.30;;;10.46;66.34;94872.72;4973539;28;19905;-49
2023/04/14 07:47:56;;;;;;;;;;;17.00;56.00;;;10.71;65.45;94872.47;4972233;28;19963;-46
2023/04/14 07:50:22;;;;;;;;;;;17.30;55.60;;;10.71;63.20;94869.03;4973558;28;20319;-51
2023/04/14 07:52:48;;;;;;;;;;;17.60;55.10;;;10.87;60.82;94868.59;4972963;28;20340;-53
2023/04/14 07:55:14;;;;;;;;;;;17.90;54.70;;;10.89;61.14;94871.75;4972248;28;19984;-49
2023/04/14 07:57:40;;;;;;;;;;;18.00;53.90;;;11.14;58.55;94867.22;4972763;28;19983;-49
2023/04/14 08:00:08;;;;;;;;;;;18.20;53.70;;;10.84;59.03;94869.16;4972357;28;20269;-47
2023/04/14 08:02:35;;;;;;;;;;;18.30;53.30;;;11.04;61.07;94868.13;4973198;28;20024;-57
2023/04/14 08:05:01;;;;;;;;;;;18.50;53.00;;;11.02;59.29;94870.28;4973665;28;19937;-56
2023/04/14 08:07:30;;;;;;;;;;;18.60;52.60;;;11.20;59.74;94868.75;4972037;28;19963;-56
2023/04/14 08:09:55;;;;;;;;;;;18.80;52.40;;;11.47;59.14;94870.00;4972765;28;19913;-56
2023/04/14 08:12:23;;;;;;;;;;;19.00;52.20;;;11.70;56.64;94863.03;4971844;28;19909;-57
2023/04/14 08:14:48;;;;;;;;;;;19.20;51.90;;;12.09;55.65;94868.06;4972854;28;19906;-56
2023/04/14 08:17:15;;;;;;;;;;;19.50;51.70;;;12.39;56.62;94860.66;4972198;28;20302;-56
2023/04/14 08:19:41;;;;;;;;;;;19.80;51.40;;;12.42;55.68;94860.06;4972227;28;19909;-58
2023/04/14 08:22:07;;;;;;;;;;;20.00;51.10;;;12.22;56.42;94866.53;4972928;28;20369;-56
2023/04/14 08:24:32;;;;;;;;;;;20.30;50.00;;;12.66;55.68;94862.56;4971667;28;19928;-57
2023/04/14 08:27:00;;;;;;;;;;;20.40;49.70;;;13.03;53.31;94860.81;4973132;28;20356;-53
2023/04/14 08:29:26;;;;;;;;;;;20.60;49.60;;;13.25;55.28;94863.63;4971449;28;19905;-54
2023/04/14 08:31:52;;;;;;;;;;;20.80;49.50;;;13.57;52.86;94860.03;4953660;28;19909;-58
2023/04/14 08:34:18;;;;;;;;;;;21.10;49.40;;;13.49;53.97;94859.94;4953271;28;19952;-58
2023/04/14 08:36:45;;;;;;;;;;;21.40;48.80;;;13.58;53.18;94861.59;4978307;28;20338;-58
2023/04/14 08:39:11;;;;;;;;;;;21.40;48.30;;;13.45;52.60;94873.13;4972529;28;19905;-56
2023/04/14 08:41:38;;;;;;;;;;;21.50;47.60;;;13.03;51.10;94871.53;4972033;28;19919;-58
2023/04/14 08:44:05;;;;;;;;;;;21.50;47.40;;;13.14;51.09;94870.25;4972423;28;19914;-58
2023/04/14 08:46:31;;;;;;;;;;;21.50;47.00;;;13.53;55.29;94872.41;4972820;28;19975;-58
2023/04/14 08:49:06;;;;;;;;;;;21.60;46.80;;;13.95;50.04;94870.44;4971284;28;19909;-58
2023/04/14 08:51:37;;;;;;;;;;;21.80;47.00;;;13.96;51.24;94866.66;4972874;28;19906;-59
2023/04/14 08:54:09;;;;;;;;;;;21.90;46.30;;;13.75;50.93;94858.28;4971442;28;19944;-59
2023/04/14 08:56:41;;;;;;;;;;;22.10;45.60;;;13.83;49.95;94857.56;4972011;28;19956;-58
2023/04/14 08:59:10;;;;;;;;;;;22.00;45.50;;;14.14;51.52;94861.44;4972315;28;20356;-56
2023/04/14 09:01:37;;;;;;;;;;;22.10;45.50;;;14.31;48.28;94867.69;4971923;28;19926;-58
2023/04/14 09:04:05;;;;;;;;;;;22.30;45.70;;;14.36;48.65;94861.44;4972524;28;19909;-58
2023/04/14 09:06:32;;;;;;;;;;;22.40;45.50;;;14.78;50.26;94862.78;4960891;28;19956;-59
2023/04/14 09:09:04;;;;;;;;;;;22.50;45.40;;;14.97;48.31;94861.78;4953279;28;19905;-58
2023/04/14 09:11:30;;;;;;;;;;;22.70;45.50;;;15.31;46.68;94861.09;4971830;28;20060;-59
2023/04/14 09:13:59;;;;;;;;;;;22.80;45.20;;;14.99;46.13;94852.31;4972128;28;19906;-59
2023/04/14 09:16:27;;;;;;;;;;;22.90;44.90;;;15.00;46.76;94859.25;4972606;28;20399;-59
2023/04/14 09:18:54;;;;;;;;;;;22.90;44.50;;;15.01;45.31;94852.00;4971451;28;20399;-57
2023/04/14 09:21:20;;;;;;;;;;;23.10;44.10;;;15.16;43.33;94850.81;4972279;28;19905;-59
2023/04/14 09:23:46;;;;;;;;;;;23.30;43.90;;;15.55;43.47;94855.34;4970298;28;20358;-59
2023/04/14 09:26:13;;;;;;;;;;;23.60;43.70;;;15.67;43.55;94844.81;4971184;28;19906;-56
2023/04/14 09:28:40;;;;;;;;;;;23.90;43.20;;;15.92;45.71;94848.59;4972035;28;20361;-56
2023/04/14 09:31:07;;;;;;;;;;;24.20;42.80;;;16.14;47.29;94849.56;4969917;28;19949;-56
2023/04/14 09:33:42;;;;;;;;;;;24.50;42.50;;;16.65;43.11;94845.19;4986944;28;19916;-59
2023/04/14 09:36:25;;;;;;;;;;;24.80;42.30;;;17.07;43.46;94851.56;4971650;28;19971;-59
2023/04/14 09:38:51;;;;;;;;;;;25.20;42.10;;;17.04;41.11;94851.41;4972144;28;19924;-57
2023/04/14 09:41:22;;;;;;;;;;;25.60;41.50;;;16.76;40.85;94846.44;4971761;28;19915;-58
2023/04/14 09:43:49;;;;;;;;;;;25.60;41.00;;;16.99;39.11;94844.31;4972246;28;19910;-59
2023/04/14 09:46:15;;;;;;;;;;;25.70;40.60;;;16.67;40.60;94842.97;4972193;28;19933;-58
2023/04/14 09:48:55;;;;;;;;;;;25.60;40.30;;;17.01;36.88;94844.00;4974564;28;20315;-59
2023/04/14 09:51:26;;;;;;;;;;;25.70;40.10;;;17.13;37.34;94835.25;4975497;28;19960;-60
2023/04/14 09:53:53;;;;;;;;;;;25.80;40.00;;;17.21;39.13;94837.91;4969845;28;19997;-59
2023/04/14 09:56:26;;;;;;;;;;;26.10;39.90;;;17.32;39.58;94839.09;4971126;28;19917;-59
2023/04/14 09:59:00;;;;;;;;;;;26.10;39.60;;;16.81;41.12;94842.81;4975498;28;19979;-59
2023/04/14 10:01:32;;;;;;;;;;;25.90;39.50;;;16.42;38.78;94836.53;4974415;28;19927;-55
2023/04/14 10:04:00;;;;;;;;;;;25.40;39.30;;;16.34;39.95;94838.13;4974863;28;19996;-56
2023/04/14 10:06:26;;;;;;;;;;;25.20;39.20;;;16.23;40.50;94833.41;4972955;28;19906;-52
2023/04/14 10:08:55;;;;;;;;;;;25.00;39.20;;;16.87;38.38;94823.47;4975286;28;20347;-56
2023/04/14 10:11:31;;;;;;;;;;;25.20;39.20;;;17.09;39.64;94829.72;4956047;28;20301;-55
2023/04/14 10:14:03;;;;;;;;;;;25.20;39.20;;;17.02;38.53;94829.44;4975183;28;20004;-56
2023/04/14 10:16:29;;;;;;;;;;;24.80;39.20;;;16.40;39.05;94830.72;4974762;28;19912;-53
2023/04/14 10:18:59;;;;;;;;;;;24.50;39.40;;;16.23;38.13;94828.03;4972542;28;20369;-55
2023/04/14 10:21:26;;;;;;;;;;;24.10;39.40;;;15.98;38.73;94822.34;4974619;28;19941;-56
2023/04/14 10:23:56;;;;;;;;;;;23.70;39.20;;;15.38;40.42;94823.09;4973982;28;19914;-55
2023/04/14 10:26:22;;;;;;;;;;;23.20;39.30;;;15.16;40.15;94811.34;4974438;28;20304;-53
2023/04/14 10:28:51;;;;;;;;;;;22.70;39.50;;;14.48;40.99;94818.00;4973753;28;19936;-52
2023/04/14 10:31:29;;;;;;;;;;;22.30;39.60;;;14.26;42.57;94808.91;4972126;28;19909;-56
2023/04/14 10:33:55;;;;;;;;;;;21.80;39.80;;;13.94;42.42;94809.16;4989785;28;19940;-56
2023/04/14 10:36:30;;;;;;;;;;;21.50;40.10;;;14.39;41.66;94809.13;4973737;28;19999;-54
2023/04/14 10:39:02;;;;;;;;;;;21.70;40.10;;;14.63;43.92;94804.22;4974714;28;20295;-56
2023/04/14 10:41:49;;;;;;;;;;;22.20;40.10;;;14.72;41.00;94798.91;4973439;28;19913;-55
2023/04/14 10:44:27;;;;;;;;;;;22.70;39.90;;;15.19;40.14;94791.94;4974270;28;19906;-53
2023/04/14 10:46:55;;;;;;;;;;;23.30;39.60;;;15.47;40.42;94783.63;4974251;28;20000;-54
2023/04/14 10:49:35;;;;;;;;;;;23.80;39.30;;;15.31;38.50;94779.84;4972767;28;20288;-52
2023/04/14 10:52:03;;;;;;;;;;;24.30;38.70;;;15.78;38.26;94780.84;4974574;28;20007;-57
2023/04/14 10:54:54;;;;;;;;;;;24.60;37.90;;;16.15;39.23;94781.28;4973179;28;19929;-58
2023/04/14 10:57:25;;;;;;;;;;;25.10;37.80;;;16.57;40.18;94776.88;4972172;28;19917;-55
2023/04/14 10:59:59;;;;;;;;;;;25.50;37.20;;;16.71;37.19;94773.22;4973209;28;20197;-56
2023/04/14 11:02:28;;;;;;;;;;;25.80;37.00;;;16.74;37.56;94773.38;4973634;28;20048;-58
2023/04/14 11:05:05;;;;;;;;;;;26.10;36.50;;;16.90;36.45;94764.78;4974249;28;19905;-57
2023/04/14 11:07:43;;;;;;;;;;;26.40;36.50;;;16.84;33.28;94750.72;4972940;28;20056;-57
2023/04/14 11:10:18;;;;;;;;;;;26.70;36.10;;;16.58;36.24;94756.97;4965579;28;19945;-57
2023/04/14 11:12:47;;;;;;;;;;;26.90;35.80;;;16.59;34.51;94755.84;4970413;28;20285;-56
2023/04/14 11:15:15;;;;;;;;;;;27.10;35.30;;;17.09;35.72;94759.78;4974019;28;19933;-53
2023/04/14 11:17:43;;;;;;;;;;;27.30;35.00;;;17.19;32.45;94751.31;4972856;28;20451;-56
2023/04/14 11:20:27;;;;;;;;;;;27.30;34.60;;;17.30;35.08;94746.34;4973872;28;19937;-56
2023/04/14 11:22:53;;;;;;;;;;;27.60;34.70;;;17.74;36.08;94744.91;4973717;28;19905;-54
2023/04/14 11:25:20;;;;;;;;;;;27.80;34.70;;;17.60;33.68;94743.59;4973197;28;20383;-57
2023/04/14 11:27:50;;;;;;;;;;;27.90;33.70;;;18.20;36.65;94742.28;4973475;28;19952;-52
2023/04/14 11:30:19;;;;;;;;;;;27.90;33.40;;;17.58;34.75;94738.53;4972483;28;19933;-55
2023/04/14 11:32:52;;;;;;;;;;;28.00;33.30;;;18.04;34.20;94734.81;4973105;28;19913;-50